createdAt,value
2023-04-18T00:01:27.079Z,3.57
2023-04-18T00:03:53.713Z,3.58
2023-04-18T00:06:22.158Z,3.63
2023-04-18T00:08:48.557Z,3.60
2023-04-18T00:11:14.982Z,3.71
2023-04-18T00:13:41.449Z,3.73
2023-04-18T00:16:08.583Z,3.72
2023-04-18T00:18:36.842Z,3.70
2023-04-18T00:21:04.302Z,3.65
2023-04-18T00:23:31.074Z,3.68
2023-04-18T00:25:57.498Z,3.69
2023-04-18T00:28:23.858Z,3.76
2023-04-18T00:30:50.382Z,3.73
2023-04-18T00:33:16.903Z,3.74
2023-04-18T00:35:43.310Z,3.64
2023-04-18T00:38:09.755Z,3.54
2023-04-18T00:40:36.561Z,3.48
2023-04-18T00:43:03.269Z,3.48
2023-04-18T00:45:29.755Z,3.52
2023-04-18T00:47:56.472Z,3.55
2023-04-18T00:50:24.230Z,3.52
2023-04-18T00:52:51.905Z,3.48
2023-04-18T00:55:18.703Z,3.34
2023-04-18T00:57:45.842Z,3.24
2023-04-18T01:00:12.817Z,3.27
2023-04-18T01:02:40.518Z,3.28
2023-04-18T01:05:07.942Z,3.31
2023-04-18T01:07:37.274Z,3.30
2023-04-18T01:10:04.273Z,3.31
2023-04-18T01:12:30.693Z,3.28
2023-04-18T01:14:57.261Z,3.17
2023-04-18T01:17:23.692Z,3.18
2023-04-18T01:19:50.950Z,3.17
2023-04-18T01:22:18.833Z,3.09
2023-04-18T01:24:45.490Z,3.03
2023-04-18T01:27:13.484Z,2.97
2023-04-18T01:29:40.184Z,2.92
2023-04-18T01:32:06.735Z,2.95
2023-04-18T01:34:33.106Z,2.89
2023-04-18T01:36:59.579Z,2.88
2023-04-18T01:39:26.024Z,2.74
2023-04-18T01:41:52.495Z,2.75
2023-04-18T01:44:18.862Z,2.71
2023-04-18T01:46:45.414Z,2.62
2023-04-18T01:49:11.846Z,2.76
2023-04-18T01:51:42.087Z,2.63
2023-04-18T01:54:08.468Z,2.67
2023-04-18T01:56:34.855Z,2.70
2023-04-18T01:59:01.209Z,2.65
2023-04-18T02:01:27.591Z,2.53
2023-04-18T02:03:54.295Z,2.55
2023-04-18T02:06:20.864Z,2.62
2023-04-18T02:08:47.221Z,2.56
2023-04-18T02:11:13.575Z,2.47
2023-04-18T02:13:39.939Z,2.44
2023-04-18T02:16:11.171Z,2.40
2023-04-18T02:18:40.013Z,2.24
2023-04-18T02:21:06.740Z,2.20
2023-04-18T02:23:33.075Z,2.21
2023-04-18T02:25:59.482Z,2.34
2023-04-18T02:28:25.840Z,2.32
2023-04-18T02:30:52.219Z,2.24
2023-04-18T02:33:18.575Z,2.13
2023-04-18T02:35:44.992Z,2.25
2023-04-18T02:38:11.347Z,2.24
2023-04-18T02:40:37.717Z,2.32
2023-04-18T02:43:04.138Z,2.26
2023-04-18T02:45:30.542Z,2.33
2023-04-18T02:47:56.972Z,2.31
2023-04-18T02:50:24.612Z,2.24
2023-04-18T02:52:51.395Z,2.19
2023-04-18T02:55:17.847Z,2.18
2023-04-18T02:57:44.262Z,2.23
2023-04-18T03:00:11.444Z,2.13
2023-04-18T03:02:37.845Z,2.12
2023-04-18T03:05:05.266Z,2.10
2023-04-18T03:07:31.662Z,2.18
2023-04-18T03:09:58.024Z,2.06
2023-04-18T03:12:24.488Z,2.10
2023-04-18T03:14:50.885Z,2.04
2023-04-18T03:17:17.336Z,2.06
2023-04-18T03:19:44.882Z,2.00
2023-04-18T03:22:11.281Z,1.91
2023-04-18T03:24:37.659Z,1.74
2023-04-18T03:27:04.047Z,1.75
2023-04-18T03:29:31.075Z,1.76
2023-04-18T03:31:57.443Z,1.86
2023-04-18T03:34:23.866Z,1.68
2023-04-18T03:36:50.294Z,1.79
2023-04-18T03:39:16.701Z,1.72
2023-04-18T03:41:43.062Z,1.76
2023-04-18T03:44:09.402Z,1.86
2023-04-18T03:46:35.903Z,1.84
2023-04-18T03:49:02.343Z,1.93
2023-04-18T03:51:33.379Z,1.89
2023-04-18T03:53:59.751Z,1.94
2023-04-18T03:56:26.213Z,1.81
2023-04-18T03:58:52.587Z,1.89
2023-04-18T04:01:18.966Z,1.85
2023-04-18T04:03:45.550Z,1.72
2023-04-18T04:06:12.106Z,1.72
2023-04-18T04:08:38.453Z,1.69
2023-04-18T04:11:04.891Z,1.72
2023-04-18T04:13:31.237Z,1.66
2023-04-18T04:15:57.630Z,1.60
2023-04-18T04:18:29.824Z,1.67
2023-04-18T04:20:57.195Z,1.60
2023-04-18T04:23:25.429Z,1.53
2023-04-18T04:25:55.745Z,1.54
2023-04-18T04:28:23.029Z,1.56
2023-04-18T04:30:50.822Z,1.53
2023-04-18T04:33:21.005Z,1.60
2023-04-18T04:35:47.719Z,1.55
2023-04-18T04:38:15.265Z,1.52
2023-04-18T04:40:42.418Z,1.58
2023-04-18T04:43:12.480Z,1.63
2023-04-18T04:45:42.224Z,1.72
2023-04-18T04:48:09.217Z,1.73
2023-04-18T04:50:40.223Z,1.83
2023-04-18T04:53:06.745Z,1.94
2023-04-18T04:55:33.931Z,2.06
2023-04-18T04:58:00.624Z,2.24
2023-04-18T05:00:26.999Z,2.30
2023-04-18T05:02:59.039Z,2.49
2023-04-18T05:05:25.470Z,2.61
2023-04-18T05:07:51.944Z,2.76
2023-04-18T05:10:18.305Z,2.86
2023-04-18T05:12:44.738Z,3.06
2023-04-18T05:15:11.283Z,3.19
2023-04-18T05:17:37.723Z,3.41
2023-04-18T05:20:05.356Z,3.67
2023-04-18T05:22:32.364Z,3.78
2023-04-18T05:24:58.801Z,3.86
2023-04-18T05:27:26.207Z,3.99
2023-04-18T05:29:52.690Z,4.18
2023-04-18T05:32:19.133Z,4.24
2023-04-18T05:34:45.921Z,4.38
2023-04-18T05:37:12.285Z,4.49
2023-04-18T05:39:38.970Z,4.69
2023-04-18T05:42:05.385Z,4.84
2023-04-18T05:44:31.856Z,5.08
2023-04-18T05:46:58.576Z,5.27
2023-04-18T05:49:24.910Z,5.18
2023-04-18T05:51:52.712Z,5.40
2023-04-18T05:54:21.405Z,5.46
2023-04-18T05:56:48.209Z,5.26
2023-04-18T05:59:14.604Z,5.18
2023-04-18T06:01:41.006Z,5.08
2023-04-18T06:04:08.550Z,5.01
2023-04-18T06:06:36.056Z,5.00
2023-04-18T06:09:02.537Z,4.93
2023-04-18T06:11:28.974Z,4.94
2023-04-18T06:13:56.022Z,4.94
2023-04-18T06:16:22.804Z,4.88
2023-04-18T06:18:49.226Z,4.85
2023-04-18T06:21:15.786Z,4.91
2023-04-18T06:23:42.136Z,4.94
2023-04-18T06:26:09.227Z,4.87
2023-04-18T06:28:35.831Z,4.86
2023-04-18T06:31:02.558Z,4.92
2023-04-18T06:33:28.938Z,4.94
2023-04-18T06:35:55.380Z,4.99
2023-04-18T06:38:21.810Z,4.86
2023-04-18T06:40:48.196Z,4.85
2023-04-18T06:43:14.613Z,4.92
2023-04-18T06:45:41.121Z,4.98
2023-04-18T06:48:09.014Z,5.11
2023-04-18T06:50:35.476Z,5.05
2023-04-18T06:53:02.209Z,5.06
2023-04-18T06:55:28.593Z,5.15
2023-04-18T06:57:55.041Z,5.27
2023-04-18T07:00:21.772Z,5.24
2023-04-18T07:02:48.657Z,5.27
2023-04-18T07:05:15.068Z,5.23
2023-04-18T07:07:41.418Z,5.26
2023-04-18T07:10:09.585Z,5.38
2023-04-18T07:12:35.973Z,5.35
2023-04-18T07:15:03.626Z,5.31
2023-04-18T07:17:30.097Z,5.45
2023-04-18T07:19:56.621Z,5.45
2023-04-18T07:22:23.021Z,5.58
2023-04-18T07:24:49.353Z,5.55
2023-04-18T07:27:15.968Z,5.63
2023-04-18T07:29:42.328Z,5.59
2023-04-18T07:32:08.774Z,5.61
2023-04-18T07:34:36.102Z,5.66
2023-04-18T07:37:02.483Z,5.72
2023-04-18T07:39:28.879Z,5.70
2023-04-18T07:41:55.358Z,5.72
2023-04-18T07:44:21.844Z,5.74
2023-04-18T07:46:48.344Z,5.98
2023-04-18T07:49:15.143Z,6.09
2023-04-18T07:51:41.734Z,6.16
2023-04-18T07:54:08.167Z,6.24
2023-04-18T07:56:34.574Z,6.18
2023-04-18T07:59:01.662Z,6.31
2023-04-18T08:01:28.090Z,6.22
2023-04-18T08:03:56.573Z,6.27
2023-04-18T08:06:23.250Z,6.38
2023-04-18T08:08:49.619Z,6.41
2023-04-18T08:11:15.950Z,6.30
2023-04-18T08:13:42.369Z,6.30
2023-04-18T08:16:09.039Z,6.45
2023-04-18T08:18:36.021Z,6.34
2023-04-18T08:21:02.501Z,6.42
2023-04-18T08:23:28.914Z,6.48
2023-04-18T08:25:55.300Z,6.53
2023-04-18T08:28:21.656Z,6.64
2023-04-18T08:30:49.094Z,6.70
2023-04-18T08:33:16.151Z,6.63
2023-04-18T08:35:42.986Z,6.61
2023-04-18T08:38:09.589Z,6.70
2023-04-18T08:40:37.457Z,6.65
2023-04-18T08:43:09.248Z,6.75
2023-04-18T08:45:36.787Z,6.87
2023-04-18T08:48:03.905Z,6.89
2023-04-18T08:50:30.659Z,6.88
2023-04-18T08:52:59.609Z,6.90
2023-04-18T08:55:26.008Z,7.04
2023-04-18T08:57:55.178Z,7.03
2023-04-18T09:00:22.670Z,7.03
2023-04-18T09:02:49.439Z,7.11
2023-04-18T09:05:21.187Z,7.19
2023-04-18T09:07:49.594Z,7.19
2023-04-18T09:10:30.926Z,7.32
2023-04-18T09:12:59.081Z,7.49
2023-04-18T09:15:27.233Z,7.45
2023-04-18T09:17:56.373Z,7.49
2023-04-18T09:20:34.556Z,7.55
2023-04-18T09:23:03.854Z,7.53
2023-04-18T09:25:40.129Z,7.49
2023-04-18T09:28:24.766Z,7.58
2023-04-18T09:30:52.572Z,7.66
2023-04-18T09:33:28.217Z,7.71
2023-04-18T09:35:55.725Z,7.70
2023-04-18T09:38:39.037Z,7.82
2023-04-18T09:41:10.085Z,7.85
2023-04-18T09:43:36.565Z,7.96
2023-04-18T09:46:04.625Z,8.16
2023-04-18T09:48:31.262Z,8.52
2023-04-18T09:51:00.061Z,8.87
2023-04-18T09:53:27.141Z,8.98
2023-04-18T09:55:56.175Z,9.22
2023-04-18T09:58:26.234Z,9.18
2023-04-18T10:00:54.237Z,9.25
2023-04-18T10:03:24.999Z,9.34
2023-04-18T10:05:52.077Z,8.97
2023-04-18T10:08:18.527Z,9.12
2023-04-18T10:10:44.950Z,8.91
2023-04-18T10:13:13.753Z,8.96
2023-04-18T10:15:41.748Z,9.04
2023-04-18T10:18:11.287Z,8.98
2023-04-18T10:20:41.151Z,9.12
2023-04-18T10:23:34.678Z,9.13
2023-04-18T10:26:02.571Z,9.13
2023-04-18T10:28:51.223Z,9.09
2023-04-18T10:31:17.714Z,8.99
2023-04-18T10:34:03.350Z,9.13
2023-04-18T10:36:32.369Z,9.16
2023-04-18T10:39:20.851Z,9.08
2023-04-18T10:41:51.422Z,9.31
2023-04-18T10:44:23.062Z,9.30
2023-04-18T10:46:52.960Z,9.37
2023-04-18T10:49:30.327Z,9.32
2023-04-18T10:52:00.846Z,9.39
2023-04-18T10:54:55.166Z,9.60
2023-04-18T10:57:22.643Z,9.66
2023-04-18T10:59:51.365Z,9.58
2023-04-18T11:02:28.736Z,9.72
2023-04-18T11:05:01.480Z,9.90
2023-04-18T11:07:34.370Z,10.04
2023-04-18T11:10:01.856Z,10.04
2023-04-18T11:12:36.682Z,10.19
2023-04-18T11:15:10.522Z,10.16
2023-04-18T11:17:39.978Z,10.31
2023-04-18T11:20:12.758Z,10.34
2023-04-18T11:22:46.988Z,10.49
2023-04-18T11:25:13.910Z,10.62
2023-04-18T11:27:44.845Z,10.88
2023-04-18T11:30:13.069Z,10.97
2023-04-18T11:32:39.661Z,11.08
2023-04-18T11:35:08.713Z,11.15
2023-04-18T11:37:37.528Z,11.16
2023-04-18T11:40:09.879Z,10.80
2023-04-18T11:42:38.755Z,10.73
2023-04-18T11:45:15.467Z,10.70
2023-04-18T11:47:43.364Z,10.88
2023-04-18T11:50:12.024Z,11.20
2023-04-18T11:52:40.212Z,11.16
2023-04-18T11:55:18.335Z,11.34
2023-04-18T11:57:52.905Z,11.17
2023-04-18T12:00:41.805Z,11.34
2023-04-18T12:03:16.793Z,11.19
2023-04-18T12:05:43.748Z,11.26
2023-04-18T12:08:19.370Z,11.24
2023-04-18T12:10:47.326Z,11.40
2023-04-18T12:13:13.906Z,11.37
2023-04-18T12:15:43.430Z,11.30
2023-04-18T12:18:12.039Z,11.39
2023-04-18T12:20:50.270Z,11.45
2023-04-18T12:23:40.364Z,11.50
2023-04-18T12:26:07.544Z,11.57
2023-04-18T12:28:35.154Z,11.55
2023-04-18T12:31:02.324Z,11.74
2023-04-18T12:33:30.516Z,11.73
2023-04-18T12:35:57.315Z,11.74
2023-04-18T12:38:23.936Z,11.63
2023-04-18T12:40:51.585Z,11.63
2023-04-18T12:43:18.732Z,11.65
2023-04-18T12:45:46.647Z,11.60
2023-04-18T12:48:13.520Z,11.67
2023-04-18T12:50:39.876Z,11.69
2023-04-18T12:53:06.635Z,11.80
2023-04-18T12:55:33.177Z,11.84
2023-04-18T12:57:59.613Z,11.61
2023-04-18T13:00:28.447Z,11.66
2023-04-18T13:02:55.039Z,11.50
2023-04-18T13:05:23.338Z,11.60
2023-04-18T13:07:54.092Z,11.68
2023-04-18T13:10:25.376Z,11.78
2023-04-18T13:12:52.490Z,11.70
2023-04-18T13:15:22.633Z,11.67
2023-04-18T13:17:49.236Z,11.68
2023-04-18T13:20:16.399Z,11.65
2023-04-18T13:22:43.244Z,11.48
2023-04-18T13:25:13.239Z,11.57
2023-04-18T13:27:41.960Z,11.51
2023-04-18T13:30:10.330Z,11.40
2023-04-18T13:32:37.611Z,11.38
2023-04-18T13:35:04.453Z,11.39
2023-04-18T13:37:31.157Z,11.29
2023-04-18T13:39:57.608Z,11.25
2023-04-18T13:42:23.993Z,11.22
2023-04-18T13:44:50.426Z,11.18
2023-04-18T13:47:16.774Z,11.13
2023-04-18T13:49:43.173Z,11.11
2023-04-18T13:52:09.532Z,11.18
2023-04-18T13:54:37.284Z,11.06
2023-04-18T13:57:03.936Z,10.92
2023-04-18T13:59:31.789Z,10.93
2023-04-18T14:01:58.374Z,10.87
2023-04-18T14:04:25.203Z,10.88
2023-04-18T14:06:51.746Z,10.89
2023-04-18T14:09:18.212Z,10.90
2023-04-18T14:11:44.996Z,10.86
2023-04-18T14:14:11.363Z,10.86
2023-04-18T14:16:37.722Z,10.91
2023-04-18T14:19:04.177Z,10.83
2023-04-18T14:21:31.175Z,10.95
2023-04-18T14:23:57.666Z,10.94
2023-04-18T14:26:24.153Z,10.94
2023-04-18T14:28:50.680Z,10.93
2023-04-18T14:31:17.157Z,10.94
2023-04-18T14:33:43.550Z,10.86
2023-04-18T14:36:10.217Z,10.81
2023-04-18T14:38:36.618Z,10.79
2023-04-18T14:41:05.927Z,10.82
2023-04-18T14:43:32.474Z,10.87
2023-04-18T14:45:59.722Z,10.88
2023-04-18T14:48:26.894Z,10.92
2023-04-18T14:51:00.229Z,11.01
2023-04-18T14:53:27.054Z,11.10
2023-04-18T14:55:53.579Z,11.11
2023-04-18T14:58:20.488Z,11.04
2023-04-18T15:00:47.104Z,11.04
2023-04-18T15:03:13.661Z,11.19
2023-04-18T15:05:42.915Z,11.24
2023-04-18T15:08:10.936Z,11.25
2023-04-18T15:10:38.160Z,11.25
2023-04-18T15:13:04.547Z,11.39
2023-04-18T15:15:31.265Z,11.40
2023-04-18T15:17:57.788Z,11.48
2023-04-18T15:20:24.257Z,11.54
2023-04-18T15:22:50.631Z,11.75
2023-04-18T15:25:17.566Z,11.77
2023-04-18T15:27:43.915Z,11.71
2023-04-18T15:30:13.461Z,11.87
2023-04-18T15:32:42.824Z,12.04
2023-04-18T15:35:10.261Z,11.97
2023-04-18T15:37:37.159Z,11.76
2023-04-18T15:40:06.810Z,11.76
2023-04-18T15:42:33.678Z,11.59
2023-04-18T15:45:01.081Z,11.44
2023-04-18T15:47:27.490Z,11.54
2023-04-18T15:49:53.907Z,11.50
2023-04-18T15:52:20.303Z,11.57
2023-04-18T15:54:46.662Z,11.39
2023-04-18T15:57:13.031Z,11.31
2023-04-18T15:59:39.462Z,11.38
2023-04-18T16:02:07.253Z,11.41
2023-04-18T16:04:33.810Z,11.33
2023-04-18T16:07:00.572Z,11.30
2023-04-18T16:09:27.046Z,11.23
2023-04-18T16:11:53.473Z,11.29
2023-04-18T16:14:19.842Z,11.39
2023-04-18T16:16:46.232Z,11.44
2023-04-18T16:19:12.635Z,11.33
2023-04-18T16:21:38.980Z,11.56
2023-04-18T16:24:05.690Z,11.66
2023-04-18T16:26:32.127Z,11.83
2023-04-18T16:28:58.541Z,11.83
2023-04-18T16:31:25.038Z,11.63
2023-04-18T16:33:52.573Z,11.46
2023-04-18T16:36:19.121Z,11.39
2023-04-18T16:38:45.686Z,11.35
2023-04-18T16:41:12.022Z,11.24
2023-04-18T16:43:38.454Z,11.19
2023-04-18T16:46:05.537Z,11.15
2023-04-18T16:48:32.074Z,11.08
2023-04-18T16:50:58.477Z,10.93
2023-04-18T16:53:24.947Z,10.83
2023-04-18T16:55:53.026Z,10.64
2023-04-18T16:58:20.104Z,10.64
2023-04-18T17:00:47.699Z,10.70
2023-04-18T17:03:14.368Z,10.65
2023-04-18T17:05:40.940Z,10.54
2023-04-18T17:08:07.312Z,10.57
2023-04-18T17:10:34.340Z,10.48
2023-04-18T17:13:02.676Z,10.49
2023-04-18T17:15:29.045Z,10.37
2023-04-18T17:17:56.520Z,10.28
2023-04-18T17:20:23.589Z,10.48
2023-04-18T17:22:49.962Z,10.33
2023-04-18T17:25:16.670Z,10.36
2023-04-18T17:27:43.129Z,10.34
2023-04-18T17:30:09.939Z,10.15
2023-04-18T17:32:36.937Z,10.11
2023-04-18T17:35:06.135Z,10.13
2023-04-18T17:37:32.560Z,10.13
2023-04-18T17:40:00.296Z,10.05
2023-04-18T17:42:26.666Z,10.05
2023-04-18T17:44:53.042Z,10.08
2023-04-18T17:47:19.400Z,10.10
2023-04-18T17:49:46.015Z,10.06
2023-04-18T17:52:12.392Z,10.04
2023-04-18T17:54:38.778Z,10.01
2023-04-18T17:57:05.179Z,10.05
2023-04-18T17:59:37.431Z,10.12
2023-04-18T18:02:04.856Z,10.10
2023-04-18T18:04:31.669Z,10.24
2023-04-18T18:06:58.696Z,10.10
2023-04-18T18:09:25.082Z,10.09
2023-04-18T18:11:52.937Z,10.08
2023-04-18T18:14:20.444Z,10.09
2023-04-18T18:16:46.848Z,10.06
2023-04-18T18:19:14.855Z,9.97
2023-04-18T18:21:41.322Z,9.97
2023-04-18T18:24:07.881Z,9.95
2023-04-18T18:26:36.161Z,9.84
2023-04-18T18:29:09.142Z,9.75
2023-04-18T18:31:36.168Z,9.80
2023-04-18T18:34:02.942Z,9.68
2023-04-18T18:36:29.383Z,9.60
2023-04-18T18:38:55.754Z,9.68
2023-04-18T18:41:22.592Z,9.65
2023-04-18T18:43:49.845Z,9.61
2023-04-18T18:46:16.701Z,9.62
2023-04-18T18:48:43.391Z,9.65
2023-04-18T18:51:09.954Z,9.55
2023-04-18T18:53:37.770Z,9.57
2023-04-18T18:56:06.183Z,9.62
2023-04-18T18:58:32.539Z,9.55
2023-04-18T19:01:02.184Z,9.64
2023-04-18T19:03:29.055Z,9.60
2023-04-18T19:05:56.440Z,9.46
2023-04-18T19:08:22.793Z,9.62
2023-04-18T19:10:49.359Z,9.58
2023-04-18T19:13:15.755Z,9.55
2023-04-18T19:15:42.196Z,9.52
2023-04-18T19:18:08.635Z,9.50
2023-04-18T19:20:35.016Z,9.53
2023-04-18T19:23:01.372Z,9.42
2023-04-18T19:25:27.852Z,9.49
2023-04-18T19:27:54.194Z,9.40
2023-04-18T19:30:20.723Z,9.42
2023-04-18T19:32:47.114Z,9.33
2023-04-18T19:35:13.691Z,9.36
2023-04-18T19:37:40.111Z,9.33
2023-04-18T19:40:07.202Z,9.35
2023-04-18T19:42:33.648Z,9.34
2023-04-18T19:45:00.310Z,9.34
2023-04-18T19:47:27.866Z,9.29
2023-04-18T19:49:54.256Z,9.19
2023-04-18T19:52:20.606Z,9.28
2023-04-18T19:54:46.973Z,9.15
2023-04-18T19:57:13.329Z,9.20
2023-04-18T19:59:39.758Z,9.28
2023-04-18T20:02:06.742Z,9.24
2023-04-18T20:04:34.213Z,9.20
2023-04-18T20:07:02.327Z,9.21
2023-04-18T20:09:28.726Z,9.19
2023-04-18T20:11:55.096Z,9.07
2023-04-18T20:14:21.449Z,9.09
2023-04-18T20:16:49.626Z,9.16
2023-04-18T20:19:18.168Z,9.05
2023-04-18T20:21:44.781Z,9.13
2023-04-18T20:24:11.118Z,9.08
2023-04-18T20:26:37.531Z,9.05
2023-04-18T20:29:04.139Z,9.05
2023-04-18T20:31:30.549Z,9.06
2023-04-18T20:33:56.915Z,9.03
2023-04-18T20:36:24.324Z,9.06
2023-04-18T20:38:50.670Z,9.03
2023-04-18T20:41:18.310Z,9.00
2023-04-18T20:43:45.947Z,9.00
2023-04-18T20:46:13.077Z,9.04
2023-04-18T20:48:40.162Z,9.01
2023-04-18T20:51:06.778Z,8.96
2023-04-18T20:53:33.107Z,9.06
2023-04-18T20:56:01.747Z,9.01
2023-04-18T20:58:28.121Z,8.89
2023-04-18T21:00:54.495Z,8.89
2023-04-18T21:03:20.894Z,9.03
2023-04-18T21:05:47.293Z,8.96
2023-04-18T21:08:13.790Z,8.99
2023-04-18T21:10:40.232Z,8.87
2023-04-18T21:13:06.706Z,8.87
2023-04-18T21:15:34.872Z,8.94
2023-04-18T21:18:01.228Z,9.02
2023-04-18T21:20:27.625Z,8.87
2023-04-18T21:22:54.008Z,8.90
2023-04-18T21:25:21.281Z,8.89
2023-04-18T21:27:47.805Z,8.95
2023-04-18T21:30:14.230Z,8.89
2023-04-18T21:32:40.629Z,8.95
2023-04-18T21:35:07.238Z,9.00
2023-04-18T21:37:33.644Z,8.94
2023-04-18T21:40:00.946Z,8.91
2023-04-18T21:42:27.341Z,8.93
2023-04-18T21:44:54.825Z,8.94
2023-04-18T21:47:21.437Z,8.80
2023-04-18T21:49:49.008Z,8.85
2023-04-18T21:52:15.474Z,8.81
2023-04-18T21:54:41.891Z,8.88
2023-04-18T21:57:08.317Z,8.86
2023-04-18T21:59:34.663Z,8.80
2023-04-18T22:02:01.236Z,8.73
2023-04-18T22:04:27.792Z,8.83
2023-04-18T22:06:54.590Z,8.78
2023-04-18T22:09:21.697Z,8.79
2023-04-18T22:11:48.408Z,8.84
2023-04-18T22:14:15.015Z,8.79
2023-04-18T22:16:42.322Z,8.88
2023-04-18T22:19:09.049Z,8.79
2023-04-18T22:21:35.454Z,8.83
2023-04-18T22:24:01.817Z,8.65
2023-04-18T22:26:28.262Z,8.71
2023-04-18T22:28:54.627Z,8.88
2023-04-18T22:31:21.203Z,8.75
2023-04-18T22:33:47.642Z,8.78
2023-04-18T22:36:14.058Z,8.73
2023-04-18T22:38:40.398Z,8.73
2023-04-18T22:41:07.819Z,8.72
2023-04-18T22:43:34.219Z,8.76
2023-04-18T22:46:00.892Z,8.76
2023-04-18T22:48:27.397Z,8.65
2023-04-18T22:50:54.227Z,8.74
2023-04-18T22:53:20.574Z,8.77
2023-04-18T22:55:46.968Z,8.69
2023-04-18T22:58:13.612Z,8.68
2023-04-18T23:00:40.098Z,8.65
2023-04-18T23:03:06.676Z,8.68
2023-04-18T23:05:34.212Z,8.66
2023-04-18T23:08:00.794Z,8.60
2023-04-18T23:10:27.411Z,8.52
2023-04-18T23:12:53.919Z,8.64
2023-04-18T23:15:22.677Z,8.56
2023-04-18T23:17:51.789Z,8.54
2023-04-18T23:20:18.557Z,8.44
2023-04-18T23:22:45.088Z,8.31
2023-04-18T23:25:11.677Z,8.32
2023-04-18T23:27:38.099Z,8.31
2023-04-18T23:30:04.917Z,8.32
2023-04-18T23:32:31.323Z,8.23
2023-04-18T23:34:57.819Z,8.23
2023-04-18T23:37:24.182Z,8.20
2023-04-18T23:39:50.556Z,8.07
2023-04-18T23:42:16.963Z,8.05
2023-04-18T23:44:43.318Z,8.05
2023-04-18T23:47:09.726Z,8.07
2023-04-18T23:49:36.115Z,8.05
2023-04-18T23:52:02.470Z,8.20
2023-04-18T23:54:28.882Z,8.06
2023-04-18T23:56:55.253Z,8.07
2023-04-18T23:59:21.635Z,8.03
